Wiley Post Will Rogers Memorial Airport Barrow US
ICAO: PABR
IATA:
Category: Medium
Scheduled Services:

Elevation: 44 ft
TransAlt. 18000 ft.

Airport Communications:
ASOS:132.15
ANCHORAGE CNTR:135.3
CTAF:123.6
BARROW RDO:122.2

PABR Zoom In..

If you have problems with the map follow the link
https://www.worldairports.se/pages/airport.php?
ICAO=PABR

Runways:

(A) RW 07 length 7100 ft width 150 ft
ILS 110.50 / hdg 71

(B) RW 25 length 7100 ft width 150 ft
---- / hdg 251

Location; PABR
Day. 05 / Time. 21.53 Zulu
* Altimeter: 30.16
* Temperature: -18° c. 0.4°f.
* Wind from: 190° Speed 06 kn.
Dewpoint: -21° c.
Visibility: 3 Statute Miles.
Clouds: Overcast 2200 ft.
Conditions: Light Snow.

PABR 052153Z 19006KT 3SM -SN OVC022 M18/M21 A3016 RMK AO2 SNE22B41 SLP215 P0000 T11781206


Wind From 190°
Speed 06 kn.

 
 
jpsmedia worldairports.se 2019   terms of use